41.8°F
Current conditions from King Hill
Updated every 5 minutes
 
  Saturday October 25, 2014

Station Historical Data
Daily Summary for June 21, 2011 Units:  Metric    English   Both
« Previous Day
Next Day »
Daily Weekly Monthly Yearly Custom
  High: Low: Average:
Temperature: 26.5 °C 9.5 °C 18.6 °C
Dew Point: 16.1 °C 8.3 °C 11.6 °C
Humidity: 96% 35% 67%
Wind Speed: 9.7km/h 0km/h 3.5km/h
Wind Gust: 16.1km/h - -
Wind- - West
Pressure: 1013.1 hPa 1011.1 hPa -
Precipitation: 0 mm    
Historical Graphs
 
 
Tabular Data for June 21, 2011
Time Temperature Dew Point Pressure Wind Wind Speed Wind Gust Humidity Daily Rainfall
00:00 12.7 °C 10.4 °C 1011.1 hPa Calm     86% 0 mm
00:05 12.7 °C 10.4 °C 1011.1 hPa Calm     86% 0 mm
00:10 12.7 °C 10.2 °C 1011.4 hPa Calm     85% 0 mm
00:15 12.6 °C 10.1 °C 1011.1 hPa Calm     85% 0 mm
00:20 12.4 °C 10 °C 1011.1 hPa Calm     85% 0 mm
00:25 12.4 °C 9.9 °C 1011.1 hPa Calm     85% 0 mm
00:30 12.3 °C 9.9 °C 1011.1 hPa Calm     85% 0 mm
00:40 12.2 °C 9.8 °C 1011.1 hPa Calm     85% 0 mm
00:45 12.1 °C 9.7 °C 1011.4 hPa Calm     85% 0 mm
00:50 12.1 °C 9.8 °C 1011.4 hPa Calm     86% 0 mm
00:55 12 °C 9.7 °C 1011.4 hPa Calm     86% 0 mm
01:00 12 °C 9.7 °C 1011.4 hPa Calm     86% 0 mm
01:05 12 °C 9.7 °C 1011.4 hPa Calm     86% 0 mm
01:10 12.1 °C 9.9 °C 1011.4 hPa Calm     87% 0 mm
01:15 12.2 °C 10.1 °C 1011.4 hPa Calm     87% 0 mm
01:20 12.2 °C 10.1 °C 1011.4 hPa Calm     87% 0 mm
01:25 12.3 °C 10.2 °C 1011.4 hPa Calm     87% 0 mm
01:30 12.3 °C 10.1 °C 1011.4 hPa Calm     86% 0 mm
01:35 12.4 °C 10.2 °C 1011.4 hPa Calm     86% 0 mm
01:40 12.5 °C 10.2 °C 1011.4 hPa Calm     86% 0 mm
01:45 12.6 °C 10.3 °C 1011.4 hPa Calm     86% 0 mm
01:50 12.7 °C 10.6 °C 1011.4 hPa Calm     87% 0 mm
02:00 12.7 °C 10.4 °C 1011.4 hPa Calm     86% 0 mm
02:05 12.6 °C 10.3 °C 1011.4 hPa Calm     86% 0 mm
02:10 12.4 °C 10.2 °C 1011.1 hPa Calm     86% 0 mm
02:15 12.3 °C 10 °C 1011.1 hPa Calm     86% 0 mm
02:20 12.1 °C 9.8 °C 1011.1 hPa Calm     86% 0 mm
02:25 11.9 °C 9.7 °C 1011.1 hPa Calm     86% 0 mm
02:30 11.8 °C 9.7 °C 1011.4 hPa Calm     87% 0 mm
02:35 11.7 °C 9.6 °C 1011.1 hPa Calm     87% 0 mm
02:40 11.6 °C 9.5 °C 1011.1 hPa Calm     87% 0 mm
02:45 11.5 °C 9.6 °C 1011.1 hPa Calm     88% 0 mm
02:50 11.4 °C 9.6 °C 1011.1 hPa Calm     88% 0 mm
02:55 11.4 °C 9.7 °C 1011.1 hPa Calm     89% 0 mm
03:00 11.3 °C 9.6 °C 1011.1 hPa Calm     89% 0 mm
03:05 11.3 °C 9.6 °C 1011.1 hPa Calm     89% 0 mm
03:10 11.2 °C 9.5 °C 1011.1 hPa Calm     89% 0 mm
03:15 11.2 °C 9.5 °C 1011.1 hPa Calm     89% 0 mm
03:20 11.2 °C 9.6 °C 1011.1 hPa Calm     90% 0 mm
03:25 11.2 °C 9.6 °C 1011.1 hPa Calm     90% 0 mm
03:30 11.1 °C 9.6 °C 1011.1 hPa Calm     90% 0 mm
03:35 11.1 °C 9.6 °C 1011.1 hPa Calm     90% 0 mm
03:45 10.9 °C 9.6 °C 1011.4 hPa Calm     91% 0 mm
03:55 10.7 °C 9.1 °C 1011.4 hPa Calm     90% 0 mm
04:00 10.6 °C 9.2 °C 1011.4 hPa Calm     91% 0 mm
04:05 10.4 °C 8.9 °C 1011.4 hPa Calm     90% 0 mm
04:10 10.4 °C 9 °C 1011.4 hPa Calm     91% 0 mm
04:15 10.3 °C 8.9 °C 1011.4 hPa Calm     91% 0 mm
04:20 10.2 °C 8.8 °C 1011.7 hPa Calm     91% 0 mm
04:25 10.1 °C 8.7 °C 1011.7 hPa Calm     91% 0 mm
04:30 9.9 °C 8.6 °C 1011.7 hPa Calm     91% 0 mm
04:35 9.9 °C 8.6 °C 1011.7 hPa Calm     91% 0 mm
04:40 9.9 °C 8.5 °C 1011.7 hPa Calm     91% 0 mm
04:45 9.8 °C 8.4 °C 1012.1 hPa Calm     91% 0 mm
04:50 9.8 °C 8.4 °C 1011.7 hPa Calm     91% 0 mm
04:55 9.8 °C 8.6 °C 1012.1 hPa Calm     92% 0 mm
05:00 9.7 °C 8.5 °C 1012.1 hPa Calm     92% 0 mm
05:05 9.7 °C 8.4 °C 1012.1 hPa Calm     92% 0 mm
05:10 9.6 °C 8.4 °C 1012.1 hPa Calm     92% 0 mm
05:15 9.6 °C 8.3 °C 1012.1 hPa Calm     92% 0 mm
05:20 9.6 °C 8.3 °C 1012.4 hPa Calm     92% 0 mm
05:30 9.6 °C 8.5 °C 1012.4 hPa Calm     93% 0 mm
05:35 9.6 °C 8.5 °C 1012.4 hPa Calm     93% 0 mm
05:40 9.5 °C 8.4 °C 1012.4 hPa Calm     93% 0 mm
05:45 9.6 °C 8.5 °C 1012.4 hPa Calm     93% 0 mm
05:50 9.7 °C 8.6 °C 1012.4 hPa Calm     93% 0 mm
05:55 9.7 °C 8.7 °C 1012.4 hPa Calm     93% 0 mm
06:00 9.8 °C 8.8 °C 1012.4 hPa Calm     94% 0 mm
06:05 9.9 °C 8.9 °C 1012.8 hPa Calm     94% 0 mm
06:10 9.9 °C 9 °C 1012.4 hPa Calm     94% 0 mm
06:20 10.2 °C 9.2 °C 1012.4 hPa Calm     94% 0 mm
06:25 10.3 °C 9.5 °C 1012.4 hPa Calm     95% 0 mm
06:30 10.5 °C 9.7 °C 1012.4 hPa Calm     95% 0 mm
06:35 10.6 °C 9.8 °C 1012.4 hPa Calm     95% 0 mm
06:45 10.9 °C 10.2 °C 1012.4 hPa Calm     95% 0 mm
06:50 11.2 °C 10.4 °C 1012.4 hPa Calm     95% 0 mm
06:55 11.5 °C 10.7 °C 1012.4 hPa Calm     95% 0 mm
07:00 11.8 °C 11.1 °C 1012.8 hPa Calm     95% 0 mm
07:05 12.1 °C 11.3 °C 1012.4 hPa Calm     95% 0 mm
07:10 12.4 °C 11.6 °C 1012.4 hPa Calm     95% 0 mm
07:15 12.7 °C 12.1 °C 1012.4 hPa Calm     96% 0 mm
07:20 13.2 °C 12.4 °C 1012.4 hPa Calm   1.6 km/h 95% 0 mm
07:30 14.1 °C 13.3 °C 1012.4 hPa Calm     95% 0 mm
07:35 14.3 °C 13.4 °C 1012.4 hPa Calm     94% 0 mm
07:40 14.5 °C 13.2 °C 1012.8 hPa Calm     92% 0 mm
07:45 14.9 °C 13.3 °C 1012.4 hPa Calm     90% 0 mm
07:50 15.2 °C 13.2 °C 1012.4 hPa Calm     88% 0 mm
07:55 15.6 °C 13.1 °C 1012.8 hPa Calm     85% 0 mm
08:00 16.1 °C 13.3 °C 1012.8 hPa Calm     84% 0 mm
08:05 16.8 °C 13.7 °C 1012.8 hPa Calm     82% 0 mm
08:10 17.7 °C 14.7 °C 1012.8 hPa Calm     83% 0 mm
08:15 18.5 °C 14.4 °C 1012.8 hPa Calm     77% 0 mm
08:20 19.2 °C 15.1 °C 1012.8 hPa Calm     77% 0 mm
08:25 19.8 °C 15.1 °C 1012.8 hPa Calm     74% 0 mm
08:30 20.3 °C 14.9 °C 1012.8 hPa Calm     71% 0 mm
08:35 20.7 °C 15.1 °C 1012.8 hPa Calm     70% 0 mm
08:40 20.9 °C 14.8 °C 1012.8 hPa Calm     68% 0 mm
08:45 21.1 °C 15.7 °C 1012.8 hPa Calm     71% 0 mm
08:50 21.6 °C 16.1 °C 1012.8 hPa Calm     71% 0 mm
08:55 22.1 °C 15 °C 1012.8 hPa Calm     64% 0 mm
09:00 22.4 °C 14.3 °C 1012.8 hPa Calm     60% 0 mm
09:05 22.7 °C 14.6 °C 1012.8 hPa Calm   1.6 km/h 60% 0 mm
09:10 23.2 °C 15.2 °C 1012.8 hPa Calm   1.6 km/h 61% 0 mm
09:15 23.4 °C 15.4 °C 1012.8 hPa Calm   1.6 km/h 61% 0 mm
09:20 23.3 °C 14.9 °C 1012.8 hPa Calm   3.2 km/h 59% 0 mm
09:25 23.4 °C 14.2 °C 1012.8 hPa Calm   4.8 km/h 56% 0 mm
09:30 23.4 °C 14.4 °C 1012.8 hPa Calm   4.8 km/h 57% 0 mm
09:35 23.4 °C 13.3 °C 1012.8 hPa North 1.6 km/h 4.8 km/h 53% 0 mm
09:40 23.5 °C 15.1 °C 1012.8 hPa Calm   4.8 km/h 59% 0 mm
09:45 23.4 °C 14.4 °C 1012.8 hPa Calm   4.8 km/h 57% 0 mm
09:50 23.3 °C 14.9 °C 1012.8 hPa Calm   4.8 km/h 59% 0 mm
09:55 23.5 °C 13.9 °C 1012.8 hPa Calm   6.4 km/h 55% 0 mm
10:00 23.6 °C 14.3 °C 1012.8 hPa NW 3.2 km/h 9.7 km/h 56% 0 mm
10:10 23.1 °C 11.8 °C 1012.8 hPa WNW 3.2 km/h 9.7 km/h 49% 0 mm
10:15 23 °C 12.3 °C 1012.8 hPa Calm   8 km/h 51% 0 mm
10:20 23.1 °C 13.6 °C 1012.8 hPa Calm   8 km/h 55% 0 mm
10:30 23.4 °C 14.4 °C 1012.8 hPa Calm   9.7 km/h 57% 0 mm
10:35 23.4 °C 12.4 °C 1013.1 hPa Calm   11.3 km/h 50% 0 mm
10:40 23.4 °C 12.7 °C 1012.8 hPa WNW 1.6 km/h 11.3 km/h 51% 0 mm
10:45 23.2 °C 11.3 °C 1012.8 hPa NW 6.4 km/h 11.3 km/h 47% 0 mm
10:50 23.4 °C 13 °C 1012.8 hPa NW 1.6 km/h 11.3 km/h 52% 0 mm
10:55 23.4 °C 12.7 °C 1012.4 hPa West 3.2 km/h 8 km/h 51% 0 mm
11:00 23.2 °C 12.6 °C 1012.4 hPa WNW 1.6 km/h 9.7 km/h 51% 0 mm
11:05 23.3 °C 13.2 °C 1012.4 hPa Calm   9.7 km/h 53% 0 mm
11:10 23.4 °C 12.1 °C 1012.8 hPa NW 4.8 km/h 9.7 km/h 49% 0 mm
11:15 23.8 °C 13.6 °C 1012.8 hPa NW 3.2 km/h 11.3 km/h 53% 0 mm
11:20 23.9 °C 12.6 °C 1012.8 hPa WNW 6.4 km/h 11.3 km/h 49% 0 mm
11:25 24.1 °C 13.7 °C 1012.4 hPa NW 1.6 km/h 11.3 km/h 52% 0 mm
11:30 24 °C 14.4 °C 1012.8 hPa Calm   12.9 km/h 55% 0 mm
11:35 24.1 °C 14.2 °C 1012.8 hPa WNW 6.4 km/h 12.9 km/h 54% 0 mm
11:40 24.2 °C 14.3 °C 1012.8 hPa Calm   12.9 km/h 54% 0 mm
11:45 24.3 °C 12.3 °C 1012.8 hPa NNW 3.2 km/h 11.3 km/h 47% 0 mm
11:50 24.2 °C 12.6 °C 1012.8 hPa WNW 1.6 km/h 12.9 km/h 48% 0 mm
11:55 24.3 °C 13.5 °C 1012.8 hPa WNW 3.2 km/h 12.9 km/h 51% 0 mm
12:00 24.3 °C 16 °C 1012.8 hPa Calm   9.7 km/h 60% 0 mm
12:05 24.6 °C 15 °C 1012.8 hPa WNW 3.2 km/h 11.3 km/h 55% 0 mm
12:10 24.6 °C 12.6 °C 1012.8 hPa WNW 4.8 km/h 12.9 km/h 47% 0 mm
12:20 24.8 °C 12.4 °C 1012.8 hPa Calm   6.4 km/h 46% 0 mm
12:30 24.8 °C 11.4 °C 1012.8 hPa Calm   12.9 km/h 43% 0 mm
12:35 24.8 °C 13.1 °C 1012.8 hPa WNW 9.7 km/h 16.1 km/h 48% 0 mm
12:40 24.6 °C 13.8 °C 1012.8 hPa WNW 1.6 km/h 16.1 km/h 51% 0 mm
12:45 24.7 °C 12.6 °C 1012.8 hPa WNW 6.4 km/h 14.5 km/h 47% 0 mm
12:50 24.8 °C 12.4 °C 1012.8 hPa WNW 4.8 km/h 14.5 km/h 46% 0 mm
12:55 25.1 °C 12.7 °C 1012.4 hPa Calm   9.7 km/h 46% 0 mm
13:00 25.3 °C 12.9 °C 1012.4 hPa Calm   8 km/h 46% 0 mm
13:05 24.9 °C 12.6 °C 1012.4 hPa NW 1.6 km/h 9.7 km/h 46% 0 mm
13:10 25 °C 15.3 °C 1012.8 hPa NW 1.6 km/h 9.7 km/h 55% 0 mm
13:15 25.2 °C 13.7 °C 1012.8 hPa Calm   12.9 km/h 49% 0 mm
13:20 25.3 °C 12.9 °C 1012.8 hPa NW 4.8 km/h 12.9 km/h 46% 0 mm
13:25 25.3 °C 12.6 °C 1012.8 hPa Calm   11.3 km/h 45% 0 mm
13:30 25.6 °C 13.1 °C 1012.8 hPa Calm   11.3 km/h 46% 0 mm
13:35 25.8 °C 14.6 °C 1012.8 hPa NNW 1.6 km/h 9.7 km/h 50% 0 mm
13:40 25.7 °C 12.6 °C 1012.4 hPa Calm   9.7 km/h 44% 0 mm
13:50 25.6 °C 13.4 °C 1012.4 hPa NNW 3.2 km/h 9.7 km/h 47% 0 mm
13:55 25.6 °C 12.1 °C 1012.4 hPa NW 1.6 km/h 12.9 km/h 43% 0 mm
14:00 25.7 °C 11.5 °C 1012.4 hPa Calm   12.9 km/h 41% 0 mm
14:05 25.7 °C 10.7 °C 1012.4 hPa WNW 4.8 km/h 11.3 km/h 39% 0 mm
14:10 25.9 °C 12.7 °C 1012.4 hPa Calm   11.3 km/h 44% 0 mm
14:15 25.8 °C 11.6 °C 1012.4 hPa Calm   6.4 km/h 41% 0 mm
14:20 25.8 °C 12.3 °C 1012.1 hPa Calm   8 km/h 43% 0 mm
14:25 25.9 °C 12.4 °C 1012.4 hPa WNW 8 km/h 16.1 km/h 43% 0 mm
14:30 25.9 °C 10.9 °C 1012.1 hPa WNW 9.7 km/h 16.1 km/h 39% 0 mm
14:35 25.9 °C 9.3 °C 1012.1 hPa Calm   12.9 km/h 35% 0 mm
14:40 26.1 °C 11.8 °C 1012.1 hPa NW 3.2 km/h 11.3 km/h 41% 0 mm
14:45 26.2 °C 9.5 °C 1012.4 hPa Calm   11.3 km/h 35% 0 mm
14:50 26.3 °C 9.7 °C 1012.4 hPa Calm   9.7 km/h 35% 0 mm
14:55 26.3 °C 12.8 °C 1012.1 hPa NW 1.6 km/h 8 km/h 43% 0 mm
15:00 26.3 °C 11.7 °C 1012.1 hPa West 3.2 km/h 9.7 km/h 40% 0 mm
15:05 26.2 °C 10.4 °C 1012.4 hPa WSW 1.6 km/h 12.9 km/h 37% 0 mm
15:10 26.1 °C 12.9 °C 1012.1 hPa NNE 1.6 km/h 12.9 km/h 44% 0 mm
15:15 26.1 °C 13.3 °C 1012.1 hPa North 1.6 km/h 12.9 km/h 45% 0 mm
15:20 26.1 °C 11.4 °C 1012.1 hPa NW 1.6 km/h 12.9 km/h 40% 0 mm
15:25 26.1 °C 10.7 °C 1012.1 hPa NW 1.6 km/h 8 km/h 38% 0 mm
15:30 26.1 °C 11.1 °C 1012.1 hPa Calm   8 km/h 39% 0 mm
15:35 26.1 °C 11.4 °C 1012.1 hPa NNE 3.2 km/h 9.7 km/h 40% 0 mm
15:40 26.1 °C 13.3 °C 1012.1 hPa NW 3.2 km/h 12.9 km/h 45% 0 mm
15:45 26.1 °C 11.4 °C 1012.4 hPa WNW 8 km/h 14.5 km/h 40% 0 mm
15:50 26.2 °C 11.9 °C 1012.1 hPa WNW 6.4 km/h 14.5 km/h 41% 0 mm
15:55 25.9 °C 13.1 °C 1012.1 hPa NW 1.6 km/h 12.9 km/h 45% 0 mm
16:00 25.9 °C 12.4 °C 1012.1 hPa Calm   12.9 km/h 43% 0 mm
16:05 26.2 °C 14.3 °C 1012.1 hPa Calm   11.3 km/h 48% 0 mm
16:10 26.1 °C 11.4 °C 1012.1 hPa WNW 8 km/h 12.9 km/h 40% 0 mm
16:15 26 °C 12.4 °C 1012.4 hPa West 1.6 km/h 12.9 km/h 43% 0 mm
16:20 25.9 °C 12.1 °C 1012.4 hPa Calm   8 km/h 42% 0 mm
16:25 26.2 °C 14.9 °C 1012.1 hPa Calm   9.7 km/h 50% 0 mm
16:30 26.5 °C 15.6 °C 1012.1 hPa Calm   9.7 km/h 51% 0 mm
16:35 26.5 °C 14.6 °C 1012.4 hPa NW 3.2 km/h 9.7 km/h 48% 0 mm
16:40 26.4 °C 14.8 °C 1012.1 hPa Calm   9.7 km/h 49% 0 mm
16:45 26.3 °C 12.4 °C 1012.4 hPa NE 1.6 km/h 8 km/h 42% 0 mm
16:50 26.3 °C 12.4 °C 1012.1 hPa Calm   8 km/h 42% 0 mm
16:55 26.3 °C 12.3 °C 1012.1 hPa NW 3.2 km/h 8 km/h 42% 0 mm
17:00 26.1 °C 12.5 °C 1012.1 hPa Calm   8 km/h 43% 0 mm
17:05 26.3 °C 13.8 °C 1012.1 hPa Calm   8 km/h 46% 0 mm
17:10 26.2 °C 11.9 °C 1012.1 hPa Calm   8 km/h 41% 0 mm
17:15 26 °C 12.4 °C 1012.1 hPa Calm   4.8 km/h 43% 0 mm
17:20 26 °C 12.4 °C 1012.1 hPa Calm   1.6 km/h 43% 0 mm
17:25 25.7 °C 12.9 °C 1012.1 hPa Calm   1.6 km/h 45% 0 mm
17:30 25.3 °C 14.7 °C 1012.1 hPa Calm   1.6 km/h 52% 0 mm
17:35 25.2 °C 13.8 °C 1011.7 hPa Calm   1.6 km/h 49% 0 mm
17:40 25.6 °C 12.4 °C 1011.7 hPa WNW 1.6 km/h 9.7 km/h 44% 0 mm
17:45 25.8 °C 12.3 °C 1011.7 hPa Calm   9.7 km/h 43% 0 mm
17:55 25.9 °C 12 °C 1011.7 hPa Calm   9.7 km/h 42% 0 mm
18:00 25.9 °C 13.4 °C 1011.7 hPa Calm   8 km/h 46% 0 mm
18:05 25.9 °C 12.7 °C 1011.7 hPa Calm   8 km/h 44% 0 mm
18:10 25.6 °C 11.7 °C 1011.7 hPa North 1.6 km/h 8 km/h 42% 0 mm
18:15 25.3 °C 11.1 °C 1011.7 hPa Calm   8 km/h 41% 0 mm
18:20 25.1 °C 14.2 °C 1011.7 hPa North 1.6 km/h 6.4 km/h 51% 0 mm
18:25 24.8 °C 12.1 °C 1011.7 hPa Calm   6.4 km/h 45% 0 mm
18:30 24.7 °C 12.7 °C 1011.7 hPa Calm   3.2 km/h 47% 0 mm
18:35 24.7 °C 10.9 °C 1011.7 hPa NE 1.6 km/h 6.4 km/h 42% 0 mm
18:40 24.6 °C 12.2 °C 1011.7 hPa Calm   11.3 km/h 46% 0 mm
18:45 24.3 °C 13.3 °C 1011.7 hPa Calm   11.3 km/h 50% 0 mm
18:50 24.2 °C 14 °C 1011.7 hPa Calm   4.8 km/h 53% 0 mm
18:55 24.1 °C 13.3 °C 1011.7 hPa Calm   4.8 km/h 51% 0 mm
19:00 23.7 °C 11.8 °C 1011.7 hPa Calm   3.2 km/h 47% 0 mm
19:05 23.4 °C 12.4 °C 1011.7 hPa Calm   3.2 km/h 50% 0 mm
19:10 23.1 °C 12.9 °C 1011.7 hPa Calm   1.6 km/h 53% 0 mm
19:15 22.7 °C 12.7 °C 1011.7 hPa Calm   1.6 km/h 53% 0 mm
19:20 22.4 °C 14.5 °C 1011.7 hPa Calm   1.6 km/h 61% 0 mm
19:25 21.9 °C 13.3 °C 1011.7 hPa Calm   1.6 km/h 58% 0 mm
19:30 21.6 °C 14 °C 1011.7 hPa Calm     62% 0 mm
19:35 21.4 °C 13.8 °C 1011.7 hPa Calm     62% 0 mm
19:45 20.8 °C 12.6 °C 1011.7 hPa Calm     59% 0 mm
19:50 20.6 °C 13.5 °C 1011.7 hPa Calm     64% 0 mm
19:55 20.3 °C 13.5 °C 1011.7 hPa Calm     65% 0 mm
20:00 20 °C 13 °C 1011.7 hPa Calm     64% 0 mm
20:05 19.7 °C 12.2 °C 1012.1 hPa Calm     62% 0 mm
20:10 19.4 °C 12.2 °C 1011.7 hPa Calm     63% 0 mm
20:15 19.2 °C 12.7 °C 1012.1 hPa Calm     66% 0 mm
20:20 18.7 °C 11.5 °C 1011.7 hPa Calm     63% 0 mm
20:25 18.2 °C 11.6 °C 1011.7 hPa Calm     65% 0 mm
20:30 17.8 °C 11.4 °C 1011.7 hPa Calm     66% 0 mm
20:40 16.9 °C 11.2 °C 1011.7 hPa Calm     69% 0 mm
20:45 16.6 °C 11.3 °C 1012.1 hPa Calm     71% 0 mm
20:50 16.2 °C 10.6 °C 1011.7 hPa Calm     69% 0 mm
20:55 16 °C 10.9 °C 1011.7 hPa Calm     72% 0 mm
21:05 15.4 °C 10.8 °C 1012.1 hPa Calm     74% 0 mm
21:10 15 °C 10.8 °C 1012.1 hPa Calm     76% 0 mm
21:15 14.9 °C 10.9 °C 1012.1 hPa Calm     77% 0 mm
21:20 14.6 °C 10.6 °C 1012.1 hPa Calm     77% 0 mm
21:30 14.2 °C 10.4 °C 1012.1 hPa Calm     78% 0 mm
21:35 14 °C 10.2 °C 1012.1 hPa Calm     78% 0 mm
21:40 14.1 °C 10.3 °C 1012.1 hPa Calm   1.6 km/h 78% 0 mm
21:45 14.4 °C 10.4 °C 1012.4 hPa Calm   1.6 km/h 77% 0 mm
21:50 14.8 °C 10.6 °C 1012.1 hPa Calm   1.6 km/h 76% 0 mm
21:55 15 °C 10.4 °C 1012.4 hPa Calm   1.6 km/h 74% 0 mm
22:00 15.2 °C 10.4 °C 1012.4 hPa Calm   1.6 km/h 73% 0 mm
22:05 15.2 °C 10.6 °C 1012.4 hPa Calm     74% 0 mm
22:10 15 °C 10.6 °C 1012.1 hPa Calm     75% 0 mm
22:15 14.8 °C 10.4 °C 1012.1 hPa Calm     75% 0 mm
22:20 14.5 °C 10.7 °C 1012.1 hPa Calm     78% 0 mm
22:25 14.3 °C 10.3 °C 1012.1 hPa Calm     77% 0 mm
22:30 14.1 °C 10.1 °C 1012.1 hPa Calm     77% 0 mm
22:35 13.9 °C 10.1 °C 1012.1 hPa Calm     78% 0 mm
22:40 13.8 °C 10.2 °C 1012.4 hPa Calm     79% 0 mm
22:45 13.7 °C 10.1 °C 1012.1 hPa Calm     79% 0 mm
22:50 13.6 °C 10.2 °C 1012.1 hPa Calm     80% 0 mm
22:55 13.5 °C 10.1 °C 1012.1 hPa Calm     80% 0 mm
23:00 13.4 °C 9.8 °C 1012.4 hPa Calm     79% 0 mm
23:05 13.3 °C 10.1 °C 1012.4 hPa Calm     81% 0 mm
23:10 13.1 °C 9.9 °C 1012.4 hPa Calm     81% 0 mm
23:15 12.9 °C 9.9 °C 1012.1 hPa Calm     82% 0 mm
23:20 12.8 °C 9.8 °C 1012.1 hPa Calm     82% 0 mm
23:25 12.8 °C 9.9 °C 1012.4 hPa Calm     83% 0 mm
23:30 12.7 °C 9.7 °C 1012.1 hPa Calm     82% 0 mm
23:35 12.6 °C 9.6 °C 1012.4 hPa Calm     82% 0 mm
23:45 12.7 °C 10.2 °C 1012.4 hPa Calm   3.2 km/h 85% 0 mm
23:50 12.7 °C 10.3 °C 1012.4 hPa Calm   6.4 km/h 85% 0 mm
Westford Weather
Compliments of Weather Underground

 
 
Current Radar Loop:

Copyright © WestfordWeather.net 2007-2014. All rights reserved.